Time;durP1;ratioP1;P1;durP2;ratioP2;P2;SDS_P1;SDS_P2;PMS_P1;PMS_P2;Temp;Humidity;BMP_temperature;BMP_pressure;BME280_temperature;BME280_humidity;BME280_pressure;Samples;Min_cycle;Max_cycle;Signal;HPM_P1;HPM_P2
2023/06/08 00:00:09;;;;;;;6.43;3.28;;;11.80;99.90;;;;;;5092129;28;20036;-79
2023/06/08 00:02:35;;;;;;;9.90;3.42;;;11.80;99.90;;;;;;5090986;28;20067;-78
2023/06/08 00:05:02;;;;;;;7.38;3.60;;;11.80;72.50;;;;;;5081040;28;20040;-78
2023/06/08 00:07:29;;;;;;;7.70;3.35;;;11.80;2.50;;;;;;5077378;28;20056;-80
2023/06/08 00:09:56;;;;;;;7.65;3.20;;;11.80;95.00;;;;;;5089434;28;20040;-79
2023/06/08 00:12:22;;;;;;;3.35;2.13;;;11.80;99.90;;;;;;5120551;27;20590;-79
2023/06/08 00:14:48;;;;;;;4.82;3.08;;;11.90;99.90;;;;;;5090664;28;20028;-80
2023/06/08 00:17:14;;;;;;;7.63;3.33;;;11.90;99.90;;;;;;5106686;28;20051;-78
2023/06/08 00:19:42;;;;;;;4.38;2.58;;;11.90;99.90;;;;;;5076118;28;20052;-78
2023/06/08 00:22:12;;;;;;;10.27;4.38;;;11.90;99.90;;;;;;5091074;28;20047;-78
2023/06/08 00:24:38;;;;;;;9.65;3.80;;;11.90;59.60;;;;;;5080170;28;20043;-79
2023/06/08 00:27:05;;;;;;;11.00;4.85;;;11.90;66.40;;;;;;5105204;28;20089;-78
2023/06/08 00:29:32;;;;;;;6.78;3.60;;;11.90;50.10;;;;;;5064582;28;20048;-78
2023/06/08 00:31:58;;;;;;;7.45;3.80;;;11.90;99.90;;;;;;5074031;28;20096;-78
2023/06/08 00:34:25;;;;;;;7.70;4.30;;;11.80;99.90;;;;;;5100383;28;20161;-78
2023/06/08 00:36:51;;;;;;;6.68;3.40;;;11.80;99.90;;;;;;5122942;27;20055;-80
2023/06/08 00:39:17;;;;;;;6.75;2.97;;;11.80;99.90;;;;;;5090062;28;20040;-79
2023/06/08 00:41:42;;;;;;;5.57;2.97;;;11.80;99.90;;;;;;5090995;28;20048;-78
2023/06/08 00:44:09;;;;;;;5.43;3.10;;;11.90;99.90;;;;;;5090651;28;20071;-79
2023/06/08 00:46:36;;;;;;;9.88;4.13;;;11.90;99.90;;;;;;5088434;28;20052;-80
2023/06/08 00:49:02;;;;;;;5.05;3.15;;;11.80;99.90;;;;;;5091174;28;20044;-78
2023/06/08 00:51:33;;;;;;;7.45;3.90;;;11.90;99.90;;;;;;5086034;28;20516;-79
2023/06/08 00:54:00;;;;;;;11.02;4.65;;;11.80;99.90;;;;;;5107072;28;20113;-78
2023/06/08 00:56:31;;;;;;;6.10;3.53;;;11.80;84.70;;;;;;5091446;28;20044;-78
2023/06/08 00:59:00;;;;;;;4.90;3.50;;;11.80;91.00;;;;;;5088064;28;20093;-78
2023/06/08 01:01:29;;;;;;;4.18;2.95;;;11.80;99.90;;;;;;5089794;28;20073;-78
2023/06/08 01:04:05;;;;;;;9.48;4.60;;;11.80;99.90;;;;;;5115202;27;20551;-79
2023/06/08 01:06:33;;;;;;;7.40;3.90;;;11.80;99.90;;;;;;5089683;28;20036;-78
2023/06/08 01:09:17;;;;;;;8.38;4.32;;;11.80;99.90;;;;;;5087531;28;20087;-79
2023/06/08 01:12:00;;;;;;;11.23;4.35;;;11.80;99.90;;;;;;5106897;28;20048;-79
2023/06/08 01:14:58;;;;;;;8.32;3.97;;;11.70;99.90;;;;;;5095210;28;20470;-80
2023/06/08 01:17:32;;;;;;;6.25;3.60;;;11.80;99.90;;;;;;5088128;28;20634;-79
2023/06/08 01:20:08;;;;;;;7.28;3.60;;;11.80;99.90;;;;;;5070028;28;20038;-78
2023/06/08 01:23:00;;;;;;;8.47;3.83;;;11.70;99.90;;;;;;5089164;28;20039;-80
2023/06/08 01:25:30;;;;;;;9.45;3.95;;;11.80;99.90;;;;;;5090352;28;20294;-79
2023/06/08 01:28:04;;;;;;;6.97;3.75;;;11.80;99.90;;;;;;5071862;28;20397;-79
2023/06/08 01:30:30;;;;;;;5.97;3.15;;;11.80;99.90;;;;;;5085993;28;20056;-78
2023/06/08 01:32:56;;;;;;;7.47;3.75;;;11.80;99.90;;;;;;5072207;28;20044;-78
2023/06/08 01:35:21;;;;;;;6.78;4.00;;;11.80;99.90;;;;;;5089914;28;20481;-79
2023/06/08 01:37:55;;;;;;;5.05;2.92;;;11.80;99.90;;;;;;5088562;28;20036;-79
2023/06/08 01:40:34;;;;;;;6.45;3.45;;;11.80;99.90;;;;;;5086023;28;20050;-78
2023/06/08 01:43:02;;;;;;;8.98;4.00;;;11.80;99.90;;;;;;5089787;28;20069;-79
2023/06/08 01:45:31;;;;;;;5.45;3.60;;;11.80;99.90;;;;;;5084745;28;20059;-79
2023/06/08 01:48:05;;;;;;;9.18;4.35;;;11.80;99.90;;;;;;5102231;28;20067;-79
2023/06/08 01:50:33;;;;;;;4.97;3.28;;;11.70;99.90;;;;;;5080408;28;20128;-79
2023/06/08 01:52:59;;;;;;;4.55;2.63;;;11.80;99.90;;;;;;5083690;28;20052;-79
2023/06/08 01:55:27;;;;;;;3.60;2.25;;;11.80;99.90;;;;;;5079347;28;20056;-79
2023/06/08 01:57:53;;;;;;;6.40;3.67;;;11.80;99.90;;;;;;5078414;28;20052;-79
2023/06/08 02:00:20;;;;;;;6.63;3.38;;;11.80;99.90;;;;;;5077850;28;20373;-79
2023/06/08 02:02:46;;;;;;;6.07;3.10;;;11.80;99.90;;;;;;5088618;28;20044;-79
2023/06/08 02:05:13;;;;;;;;;;;11.80;99.90;;;;;;5075951;28;20043;-79
2023/06/08 02:07:40;;;;;;;7.70;3.30;;;11.80;99.90;;;;;;5085689;28;20016;-79
2023/06/08 02:10:09;;;;;;;5.60;3.42;;;11.80;99.90;;;;;;5089715;28;20067;-79
2023/06/08 02:12:35;;;;;;;8.25;4.00;;;11.80;99.90;;;;;;5081999;28;20509;-79
2023/06/08 02:15:01;;;;;;;7.25;3.35;;;11.80;99.90;;;;;;5082971;28;20113;-79
2023/06/08 02:17:33;;;;;;;;;;;11.80;99.90;;;;;;5089249;28;20076;-80
2023/06/08 02:20:00;;;;;;;6.45;3.22;;;11.80;99.90;;;;;;5077194;28;19934;-79
2023/06/08 02:22:27;;;;;;;6.10;3.10;;;11.80;99.90;;;;;;5121923;28;20133;-79
2023/06/08 02:24:53;;;;;;;10.63;3.97;;;11.80;99.90;;;;;;5123624;28;20047;-80
2023/06/08 02:27:18;;;;;;;5.70;2.75;;;11.80;99.90;;;;;;5088507;28;20040;-78
2023/06/08 02:29:44;;;;;;;5.90;2.70;;;11.80;99.90;;;;;;5123364;28;20139;-79
2023/06/08 02:32:10;;;;;;;6.82;3.13;;;11.80;99.90;;;;;;5123217;28;20048;-79
2023/06/08 02:34:37;;;;;;;6.65;3.40;;;11.80;99.90;;;;;;5123072;28;20052;-79
2023/06/08 02:37:03;;;;;;;5.05;2.85;;;11.80;99.90;;;;;;5086269;28;20110;-79
2023/06/08 02:39:29;;;;;;;;;;;11.80;99.90;;;;;;5090820;28;20036;-79
2023/06/08 02:41:55;;;;;;;7.72;3.53;;;11.80;99.90;;;;;;5125452;27;19923;-79
2023/06/08 02:44:21;;;;;;;5.75;3.40;;;11.80;99.90;;;;;;5090967;28;20035;-79
2023/06/08 02:46:47;;;;;;;5.60;3.40;;;11.80;99.90;;;;;;5089104;28;20040;-79
2023/06/08 02:49:13;;;;;;;;;;;11.80;99.90;;;;;;5086055;28;20111;-79
2023/06/08 02:51:39;;;;;;;7.18;4.10;;;11.80;99.90;;;;;;5084424;28;20027;-79
2023/06/08 02:54:05;;;;;;;6.00;3.20;;;11.80;99.90;;;;;;5084042;28;20048;-79
2023/06/08 02:56:31;;;;;;;7.15;3.20;;;11.80;99.90;;;;;;5071598;28;20046;-78
2023/06/08 02:58:57;;;;;;;9.45;4.75;;;11.80;99.90;;;;;;5088381;28;20044;-79
2023/06/08 03:01:23;;;;;;;6.88;3.67;;;11.80;99.90;;;;;;5067481;28;20044;-78
2023/06/08 03:03:51;;;;;;;7.32;3.45;;;11.80;99.90;;;;;;5088887;28;20392;-78
2023/06/08 03:06:18;;;;;;;5.95;3.10;;;11.80;99.90;;;;;;5122621;28;20086;-79
2023/06/08 03:08:48;;;;;;;;;;;11.80;99.90;;;;;;5089309;28;20119;-79
2023/06/08 03:11:14;;;;;;;11.00;4.20;;;11.80;99.90;;;;;;5104736;28;19920;-79
2023/06/08 03:13:40;;;;;;;8.35;3.33;;;11.80;99.90;;;;;;5071843;28;20044;-79
2023/06/08 03:16:06;;;;;;;8.38;4.50;;;11.80;99.90;;;;;;5123072;28;20044;-80
2023/06/08 03:18:32;;;;;;;5.18;3.20;;;11.80;99.90;;;;;;5086246;28;20128;-79
2023/06/08 03:20:58;;;;;;;4.90;2.92;;;11.80;99.90;;;;;;5105090;28;20047;-79
2023/06/08 03:23:24;;;;;;;4.95;3.13;;;11.90;99.90;;;;;;5088361;28;20051;-80
2023/06/08 03:25:50;;;;;;;;;;;11.90;99.90;;;;;;5090856;28;20459;-79
2023/06/08 03:28:18;;;;;;;8.52;4.47;;;11.90;99.90;;;;;;5093796;28;19955;-79
2023/06/08 03:30:44;;;;;;;7.07;3.80;;;11.90;99.90;;;;;;5112817;27;20060;-79
2023/06/08 03:33:11;;;;;;;7.82;3.58;;;11.90;99.90;;;;;;5092742;28;20097;-79
2023/06/08 03:35:38;;;;;;;7.35;3.50;;;11.90;99.90;;;;;;5095234;28;20807;-79
2023/06/08 03:38:03;;;;;;;6.88;3.42;;;11.90;99.90;;;;;;5088546;28;20048;-79
2023/06/08 03:40:29;;;;;;;5.28;3.05;;;11.90;99.90;;;;;;5090757;28;20036;-77
2023/06/08 03:42:55;;;;;;;7.22;3.75;;;12.00;99.90;;;;;;5086007;28;20125;-78
2023/06/08 03:45:21;;;;;;;9.68;3.85;;;11.90;99.90;;;;;;5106984;27;20049;-79
2023/06/08 03:47:47;;;;;;;9.27;4.10;;;12.00;99.90;;;;;;5085756;28;20036;-79
2023/06/08 03:50:12;;;;;;;5.22;2.95;;;11.90;99.90;;;;;;5109693;27;20055;-78
2023/06/08 03:52:40;;;;;;;6.10;2.90;;;12.00;99.90;;;;;;5087721;28;20135;-78
2023/06/08 03:55:07;;;;;;;5.70;3.03;;;12.00;99.90;;;;;;5092401;28;20047;-79
2023/06/08 03:57:33;;;;;;;10.63;4.45;;;12.00;99.90;;;;;;5069479;28;20078;-78
2023/06/08 03:59:59;;;;;;;4.72;3.05;;;12.00;99.90;;;;;;5053710;28;20072;-78
2023/06/08 04:02:24;;;;;;;7.68;3.38;;;12.10;99.90;;;;;;5090587;28;20040;-79
2023/06/08 04:04:53;;;;;;;6.15;3.47;;;12.10;99.90;;;;;;5091221;28;20047;-78
2023/06/08 04:07:20;;;;;;;9.10;3.50;;;12.10;99.90;;;;;;5084213;28;20044;-79
2023/06/08 04:09:46;;;;;;;8.13;3.47;;;12.10;99.90;;;;;;5091555;28;20048;-78
2023/06/08 04:12:12;;;;;;;6.43;3.15;;;12.10;99.90;;;;;;5074279;28;20047;-79
2023/06/08 04:14:37;;;;;;;5.38;3.03;;;12.10;99.90;;;;;;5092561;28;20085;-78
2023/06/08 04:17:03;;;;;;;10.65;3.67;;;12.20;99.90;;;;;;5092414;28;20173;-79
2023/06/08 04:19:29;;;;;;;7.10;3.30;;;12.20;99.90;;;;;;5088666;28;20121;-78
2023/06/08 04:21:56;;;;;;;8.68;3.60;;;12.20;99.90;;;;;;5091197;28;20051;-78
2023/06/08 04:24:24;;;;;;;6.70;3.13;;;12.20;99.90;;;;;;5074029;28;20071;-78
2023/06/08 04:26:50;;;;;;;7.03;3.20;;;12.30;99.90;;;;;;5090458;28;20469;-79
2023/06/08 04:29:17;;;;;;;3.78;2.35;;;12.20;99.90;;;;;;5073300;28;20093;-77
2023/06/08 04:31:43;;;;;;;6.32;2.80;;;12.30;99.90;;;;;;5084515;28;20059;-78
2023/06/08 04:34:10;;;;;;;4.22;2.58;;;12.30;99.90;;;;;;5071527;28;20191;-78
2023/06/08 04:36:35;;;;;;;7.18;3.30;;;12.40;99.90;;;;;;5114314;27;20388;-78
2023/06/08 04:39:01;;;;;;;6.88;3.20;;;12.40;99.90;;;;;;5091823;28;20121;-79
2023/06/08 04:41:29;;;;;;;4.07;2.55;;;12.40;99.90;;;;;;5089993;28;20392;-78
2023/06/08 04:44:01;;;;;;;5.53;2.60;;;12.40;99.90;;;;;;5072682;28;20040;-80
2023/06/08 04:46:28;;;;;;;4.32;2.40;;;12.40;99.90;;;;;;5112795;27;20036;-78
2023/06/08 04:48:55;;;;;;;6.15;2.78;;;12.50;99.90;;;;;;5090724;28;20504;-79
2023/06/08 04:51:23;;;;;;;7.03;2.95;;;12.50;99.90;;;;;;5091252;28;20489;-79
2023/06/08 04:53:50;;;;;;;6.68;3.25;;;12.50;99.90;;;;;;5086974;28;20115;-80
2023/06/08 04:56:18;;;;;;;10.98;3.85;;;12.50;99.90;;;;;;5060668;28;20154;-80
2023/06/08 04:58:48;;;;;;;5.82;2.90;;;12.60;99.90;;;;;;5089893;28;20044;-80
2023/06/08 05:01:14;;;;;;;6.43;3.20;;;12.50;99.90;;;;;;5090374;28;20142;-79
2023/06/08 05:03:40;;;;;;;5.15;2.58;;;12.60;96.60;;;;;;5087553;28;20126;-79
2023/06/08 05:06:05;;;;;;;4.43;2.60;;;12.60;99.90;;;;;;5070589;28;20535;-79
2023/06/08 05:08:31;;;;;;;7.80;4.15;;;12.70;99.90;;;;;;5117608;27;20150;-79
2023/06/08 05:10:57;;;;;;;8.80;3.70;;;12.70;94.90;;;;;;5089594;28;20040;-79
2023/06/08 05:13:22;;;;;;;6.53;3.40;;;12.80;65.80;;;;;;5114667;27;20126;-79
2023/06/08 05:15:50;;;;;;;6.78;3.47;;;12.80;76.00;;;;;;5072069;28;20083;-79
2023/06/08 05:18:16;;;;;;;11.77;4.03;;;12.80;91.70;;;;;;5088488;28;20495;-78
2023/06/08 05:20:41;;;;;;;6.30;3.03;;;12.80;71.80;;;;;;5078536;28;20037;-79
2023/06/08 05:23:07;;;;;;;8.50;3.80;;;12.90;73.50;;;;;;5087247;28;20119;-79
2023/06/08 05:25:37;;;;;;;8.30;3.55;;;12.90;53.70;;;;;;5087617;28;20050;-79
2023/06/08 05:28:03;;;;;;;8.43;3.33;;;12.90;24.30;;;;;;5067187;28;20044;-79
2023/06/08 05:30:30;;;;;;;7.28;3.33;;;13.00;22.20;;;;;;5080236;28;20056;-80
2023/06/08 05:32:56;;;;;;;6.95;2.67;;;13.00;13.10;;;;;;5091193;28;20447;-79
2023/06/08 05:35:22;;;;;;;5.80;2.92;;;13.00;7.60;;;;;;5095691;28;20041;-79
2023/06/08 05:37:47;;;;;;;5.43;2.75;;;13.10;6.00;;;;;;5085633;28;20040;-81
2023/06/08 05:40:13;;;;;;;6.63;2.90;;;13.20;12.40;;;;;;5070195;28;20217;-78
2023/06/08 05:42:39;;;;;;;5.88;2.88;;;13.30;1.60;;;;;;5079153;28;20055;-80
2023/06/08 05:45:05;;;;;;;9.63;3.42;;;13.30;1.00;;;;;;5081341;28;20036;-80
2023/06/08 05:47:31;;;;;;;8.02;3.55;;;13.30;1.00;;;;;;5083830;28;20036;-80
2023/06/08 05:49:56;;;;;;;8.68;3.22;;;13.40;1.00;;;;;;5083101;28;20055;-78
2023/06/08 05:52:22;;;;;;;8.57;3.30;;;13.50;1.00;;;;;;5085486;28;20468;-78
2023/06/08 05:54:48;;;;;;;9.20;3.75;;;13.50;1.00;;;;;;5070153;28;20484;-80
2023/06/08 05:57:13;;;;;;;8.50;3.40;;;13.50;99.90;;;;;;5082837;28;20033;-78
2023/06/08 05:59:39;;;;;;;10.73;3.78;;;13.60;99.90;;;;;;5087244;28;20052;-78
2023/06/08 06:02:05;;;;;;;8.05;3.78;;;13.60;99.90;;;;;;5117635;27;20556;-78
2023/06/08 06:04:31;;;;;;;;;;;13.50;99.90;;;;;;5070885;28;20042;-78
2023/06/08 06:07:01;;;;;;;5.45;2.88;;;13.60;99.90;;;;;;5084023;28;20034;-78
2023/06/08 06:09:26;;;;;;;9.48;3.60;;;13.70;99.90;;;;;;5066722;28;20052;-75
2023/06/08 06:11:52;;;;;;;8.95;3.28;;;13.70;99.90;;;;;;5085135;28;20388;-76
2023/06/08 06:14:18;;;;;;;6.53;3.20;;;13.80;99.90;;;;;;5089366;28;20059;-76
2023/06/08 06:16:43;;;;;;;10.05;3.83;;;13.90;99.90;;;;;;5106493;28;20036;-78
2023/06/08 06:19:10;;;;;;;8.27;3.60;;;13.90;99.90;;;;;;5123017;27;20044;-80
2023/06/08 06:21:35;;;;;;;;;;;13.90;1.00;;;;;;5076972;28;20082;-79
2023/06/08 06:24:01;;;;;;;7.30;3.53;;;13.90;1.00;;;;;;5060788;28;20065;-79
2023/06/08 06:26:26;;;;;;;6.60;2.97;;;13.90;1.00;;;;;;5079346;28;20047;-78
2023/06/08 06:28:52;;;;;;;4.55;2.42;;;14.00;1.00;;;;;;5083170;28;20062;-78
2023/06/08 06:31:18;;;;;;;6.13;2.95;;;14.00;1.00;;;;;;5084017;28;20169;-78
2023/06/08 06:33:44;;;;;;;8.48;3.30;;;14.10;1.00;;;;;;5115616;28;20728;-78
2023/06/08 06:36:10;;;;;;;6.32;3.08;;;14.30;99.90;;;;;;5078389;28;20072;-79
2023/06/08 06:38:36;;;;;;;8.02;3.28;;;14.40;1.00;;;;;;5088015;28;20090;-79
2023/06/08 06:41:03;;;;;;;6.85;2.95;;;14.60;99.90;;;;;;5105891;28;20040;-78
2023/06/08 06:43:29;;;;;;;10.30;3.58;;;14.60;2.20;;;;;;5066347;28;20051;-77
2023/06/08 06:45:54;;;;;;;6.30;3.20;;;14.70;31.30;;;;;;5116121;28;20039;-78
2023/06/08 06:48:21;;;;;;;9.23;3.08;;;14.80;1.00;;;;;;5115962;28;20048;-79
2023/06/08 06:50:47;;;;;;;5.22;3.00;;;14.70;99.90;;;;;;5087994;28;20036;-78
2023/06/08 06:53:13;;;;;;;6.75;3.03;;;14.70;74.80;;;;;;5087075;28;20108;-79
2023/06/08 06:55:42;;;;;;;;;;;14.80;99.90;;;;;;5085496;28;20036;-78
2023/06/08 06:58:08;;;;;;;7.53;2.90;;;14.80;99.90;;;;;;5078127;28;19987;-78
2023/06/08 07:00:37;;;;;;;6.65;3.08;;;14.80;99.90;;;;;;5089904;28;20047;-79
2023/06/08 07:03:07;;;;;;;8.68;3.60;;;14.90;99.90;;;;;;5092447;28;20044;-79
2023/06/08 07:05:36;;;;;;;6.20;3.13;;;15.00;91.80;;;;;;5090799;28;20546;-79
2023/06/08 07:08:02;;;;;;;7.43;2.88;;;15.00;1.00;;;;;;5118235;27;20448;-79
2023/06/08 07:10:29;;;;;;;;;;;15.10;99.90;;;;;;5111401;27;20101;-77
2023/06/08 07:12:56;;;;;;;9.93;3.33;;;15.10;71.40;;;;;;5090828;28;19927;-78
2023/06/08 07:15:22;;;;;;;7.53;3.00;;;15.20;99.90;;;;;;5091631;28;20056;-79
2023/06/08 07:17:48;;;;;;;9.15;3.10;;;15.20;99.90;;;;;;5124371;27;20047;-79
2023/06/08 07:20:14;;;;;;;5.45;2.55;;;15.40;99.90;;;;;;5080806;28;20051;-78
2023/06/08 07:22:40;;;;;;;10.65;3.35;;;15.50;99.90;;;;;;5093322;28;20036;-77
2023/06/08 07:25:06;;;;;;;10.93;3.78;;;15.60;99.90;;;;;;5093998;28;20113;-79
2023/06/08 07:27:32;;;;;;;;;;;15.60;99.90;;;;;;5088946;28;20393;-79
2023/06/08 07:29:58;;;;;;;7.93;2.80;;;15.60;99.90;;;;;;5086343;28;20291;-77
2023/06/08 07:32:26;;;;;;;5.10;2.67;;;15.70;99.90;;;;;;5093205;28;20093;-78
2023/06/08 07:34:52;;;;;;;4.85;2.70;;;15.70;99.90;;;;;;5093989;28;20483;-78
2023/06/08 07:37:18;;;;;;;;;;;15.80;99.90;;;;;;5079654;28;20044;-78
2023/06/08 07:39:43;;;;;;;7.82;2.67;;;16.00;99.90;;;;;;5093205;28;19920;-79
2023/06/08 07:42:09;;;;;;;7.78;3.67;;;16.20;99.90;;;;;;5091932;28;20035;-79
2023/06/08 07:44:35;;;;;;;5.32;2.63;;;16.20;45.80;;;;;;5118213;27;20080;-78
2023/06/08 07:47:01;;;;;;;5.55;2.63;;;16.40;99.90;;;;;;5097627;28;20040;-78
2023/06/08 07:49:30;;;;;;;7.43;3.08;;;16.40;1.00;;;;;;5111388;27;20036;-78
2023/06/08 07:51:56;;;;;;;8.25;2.90;;;16.40;1.00;;;;;;5068153;28;20099;-79
2023/06/08 07:54:22;;;;;;;4.55;2.60;;;16.50;1.00;;;;;;5107239;27;20468;-79
2023/06/08 07:56:49;;;;;;;8.88;3.60;;;16.50;16.10;;;;;;5080250;28;20044;-78
2023/06/08 07:59:15;;;;;;;6.70;2.80;;;16.60;1.00;;;;;;5088616;28;20499;-79
2023/06/08 08:01:42;;;;;;;6.15;3.10;;;16.80;99.90;;;;;;5091518;28;20458;-77
2023/06/08 08:04:08;;;;;;;5.55;2.85;;;16.80;1.00;;;;;;5083121;28;20090;-78
2023/06/08 08:06:34;;;;;;;4.78;2.53;;;17.00;1.00;;;;;;5119608;27;20048;-77
2023/06/08 08:09:01;;;;;;;5.10;2.53;;;17.20;99.90;;;;;;5077294;28;20040;-77
2023/06/08 08:11:27;;;;;;;3.70;2.50;;;17.30;1.00;;;;;;5061960;28;20083;-78
2023/06/08 08:13:54;;;;;;;;;;;17.50;99.90;;;;;;5091267;28;20076;-78
2023/06/08 08:16:20;;;;;;;7.88;3.42;;;17.70;99.90;;;;;;5115143;27;19928;-78
2023/06/08 08:18:45;;;;;;;;;;;17.80;99.90;;;;;;5087938;28;20415;-78
2023/06/08 08:21:11;;;;;;;7.18;3.10;;;17.80;99.90;;;;;;5091520;28;19923;-79
2023/06/08 08:23:37;;;;;;;;;;;17.80;99.90;;;;;;5091472;28;20511;-77
2023/06/08 08:26:02;;;;;;;6.43;2.88;;;18.00;99.90;;;;;;5092498;28;19916;-77
2023/06/08 08:28:28;;;;;;;;;;;18.10;99.90;;;;;;5078885;28;20052;-78
2023/06/08 08:30:54;;;;;;;7.93;3.00;;;18.00;99.90;;;;;;5086313;28;20058;-78
2023/06/08 08:33:19;;;;;;;;;;;18.20;99.90;;;;;;5094547;28;20081;-78
2023/06/08 08:35:45;;;;;;;6.55;2.88;;;18.20;99.90;;;;;;5108138;27;20289;-78
2023/06/08 08:38:11;;;;;;;;;;;18.30;99.90;;;;;;5117451;27;20055;-78
2023/06/08 08:40:37;;;;;;;5.68;2.47;;;18.20;99.90;;;;;;5089970;28;20475;-78
2023/06/08 08:43:11;;;;;;;;;;;18.10;99.90;;;;;;5082852;28;20037;-78
2023/06/08 08:45:39;;;;;;;5.93;2.58;;;18.20;99.90;;;;;;5070196;28;20299;-71
2023/06/08 08:48:07;;;;;;;6.07;2.55;;;18.40;99.90;;;;;;5070238;28;20041;-70
2023/06/08 08:50:38;;;;;;;6.85;3.10;;;18.80;99.90;;;;;;5087494;28;20044;-70
2023/06/08 08:53:06;;;;;;;5.72;2.95;;;18.70;99.90;;;;;;5075420;28;20047;-70
2023/06/08 08:55:33;;;;;;;9.05;3.28;;;18.60;99.90;;;;;;5070430;28;20142;-71
2023/06/08 08:58:05;;;;;;;5.15;2.38;;;18.50;99.90;;;;;;5069753;28;20127;-70
2023/06/08 09:00:32;;;;;;;5.80;2.42;;;18.50;99.90;;;;;;5078739;28;20044;-70
2023/06/08 09:02:58;;;;;;;6.68;3.38;;;18.40;99.90;;;;;;5091400;28;20040;-72
2023/06/08 09:05:23;;;;;;;;;;;18.40;99.90;;;;;;5092049;28;20035;-71
2023/06/08 09:07:53;;;;;;;9.90;3.65;;;18.60;99.90;;;;;;5090154;28;19916;-71
2023/06/08 09:10:22;;;;;;;7.03;3.20;;;18.70;99.90;;;;;;5075969;28;20049;-71
2023/06/08 09:12:53;;;;;;;7.00;2.97;;;18.70;74.40;;;;;;5087520;28;20035;-70
2023/06/08 09:15:27;;;;;;;6.30;2.70;;;18.80;99.90;;;;;;5072893;28;20075;-71
2023/06/08 09:17:55;;;;;;;7.88;3.08;;;19.00;55.60;;;;;;5081579;28;20716;-70
2023/06/08 09:20:31;;;;;;;6.40;2.83;;;19.10;80.60;;;;;;5109158;27;20055;-70
2023/06/08 09:22:58;;;;;;;7.57;3.00;;;19.30;96.60;;;;;;5075557;28;20044;-70
2023/06/08 09:25:36;;;;;;;5.30;2.50;;;19.30;31.30;;;;;;5089790;28;20051;-70
2023/06/08 09:28:28;;;;;;;5.85;2.45;;;19.50;99.90;;;;;;5089558;28;20040;-70
2023/06/08 09:30:57;;;;;;;6.13;3.00;;;19.90;99.90;;;;;;5084041;28;20622;-70
2023/06/08 09:33:33;;;;;;;6.68;2.90;;;19.70;1.00;;;;;;5069440;28;20055;-70
2023/06/08 09:35:58;;;;;;;6.15;2.80;;;19.60;1.00;;;;;;5102991;27;20075;-71
2023/06/08 09:38:28;;;;;;;;;;;19.40;1.00;;;;;;5110638;27;20162;-71
2023/06/08 09:41:21;;;;;;;3.95;2.08;;;19.30;55.50;;;;;;5108802;27;19966;-71
2023/06/08 09:43:51;;;;;;;9.27;3.08;;;19.70;1.00;;;;;;5077507;28;20059;-70
2023/06/08 09:46:33;;;;;;;7.68;2.70;;;19.90;1.00;;;;;;5112963;27;20079;-72
2023/06/08 09:48:59;;;;;;;7.65;2.70;;;19.90;1.00;;;;;;5096036;28;20039;-71
2023/06/08 09:51:25;;;;;;;4.78;2.47;;;19.80;1.00;;;;;;5079440;28;20084;-71
2023/06/08 09:53:58;;;;;;;4.90;2.45;;;20.00;1.00;;;;;;5068864;28;20429;-71
2023/06/08 09:56:26;;;;;;;4.55;2.42;;;20.30;99.90;;;;;;5068911;28;20044;-71
2023/06/08 09:58:54;;;;;;;5.80;2.50;;;20.50;99.90;;;;;;5087417;28;20672;-71
2023/06/08 10:01:43;;;;;;;7.68;2.60;;;20.70;99.90;;;;;;5078531;28;20123;-71
2023/06/08 10:04:31;;;;;;;5.32;2.53;;;20.70;99.90;;;;;;5083083;28;20482;-71
2023/06/08 10:07:06;;;;;;;4.60;2.20;;;20.70;99.90;;;;;;5082913;28;20048;-71
2023/06/08 10:20:12;;;;;;;5.35;2.78;;;20.60;99.90;;;;;;5816683;22;20859;-77
2023/06/08 10:22:56;;;;;;;5.95;2.55;;;20.50;99.90;;;;;;5778149;22;20446;31
2023/06/08 10:25:23;;;;;;;7.40;2.35;;;20.50;99.90;;;;;;4958389;23;20108;-71
2023/06/08 10:27:50;;;;;;;4.50;2.38;;;20.60;99.90;;;;;;4971432;28;20054;-71
2023/06/08 10:30:29;;;;;;;4.60;2.35;;;20.80;99.90;;;;;;4971512;28;20038;-71
2023/06/08 10:33:08;;;;;;;4.78;2.30;;;20.90;99.90;;;;;;4954394;28;20038;-71
2023/06/08 10:35:34;;;;;;;5.88;2.38;;;21.10;99.90;;;;;;4956653;28;20113;-71
2023/06/08 10:38:14;;;;;;;5.18;2.30;;;21.00;99.90;;;;;;4954357;28;20039;-71
2023/06/08 10:40:49;;;;;;;5.90;2.40;;;21.20;99.90;;;;;;4942163;28;20054;-78
2023/06/08 10:43:15;;;;;;;6.80;2.58;;;21.00;99.90;;;;;;4945898;28;20481;-79
2023/06/08 10:45:43;;;;;;;3.60;2.10;;;20.60;99.90;;;;;;4960948;28;20078;-80
2023/06/08 10:48:19;;;;;;;4.65;2.35;;;20.70;99.90;;;;;;4957939;28;20047;-78
2023/06/08 10:50:51;;;;;;;6.87;2.27;;;21.00;99.90;;;;;;4957935;28;20101;-78
2023/06/08 10:53:38;;;;;;;4.47;2.30;;;21.10;99.90;;;;;;4958747;28;20051;-78
2023/06/08 10:56:04;;;;;;;5.45;2.03;;;21.30;99.90;;;;;;4958667;28;20117;-77
2023/06/08 10:58:51;;;;;;;6.32;2.38;;;21.60;99.90;;;;;;4951582;28;20129;-78
2023/06/08 11:01:19;;;;;;;8.40;2.80;;;21.50;99.90;;;;;;4962717;28;20046;-78
2023/06/08 11:03:48;;;;;;;6.38;2.15;;;21.50;99.90;;;;;;4992114;28;20049;-76
2023/06/08 11:06:14;;;;;;;4.95;2.47;;;21.60;99.90;;;;;;4957584;28;20527;-76
2023/06/08 11:08:41;;;;;;;4.47;2.40;;;21.70;99.90;;;;;;4967254;28;20050;-76
2023/06/08 11:11:09;;;;;;;4.13;2.00;;;21.70;99.90;;;;;;4991241;28;20151;-76
2023/06/08 11:13:35;;;;;;;5.93;2.65;;;21.90;99.90;;;;;;4959357;28;20109;-75
2023/06/08 11:16:01;;;;;;;7.43;2.45;;;21.90;99.90;;;;;;4957829;28;20499;-76
2023/06/08 11:18:30;;;;;;;4.38;2.33;;;21.70;99.90;;;;;;4957669;28;20098;-77
2023/06/08 11:20:58;;;;;;;4.20;1.95;;;21.80;99.90;;;;;;4989525;28;20035;-76
2023/06/08 11:23:25;;;;;;;2.70;1.88;;;21.80;99.90;;;;;;4971886;28;20438;-75
2023/06/08 11:25:51;;;;;;;5.63;2.33;;;22.10;99.90;;;;;;5011966;28;20582;-76
2023/06/08 11:28:17;;;;;;;4.20;2.50;;;22.30;99.90;;;;;;4980158;28;20057;-75
2023/06/08 11:30:43;;;;;;;3.85;2.45;;;22.30;99.90;;;;;;4989794;28;20120;-77
2023/06/08 11:33:17;;;;;;;5.70;2.50;;;22.40;99.90;;;;;;4996947;28;20503;-77
2023/06/08 11:35:43;;;;;;;4.72;2.53;;;22.40;65.80;;;;;;5007930;28;20045;-77
2023/06/08 11:38:09;;;;;;;4.85;2.28;;;22.60;99.90;;;;;;5001981;28;20604;-76
2023/06/08 11:40:38;;;;;;;4.47;1.88;;;22.30;99.90;;;;;;5027331;28;20052;-77
2023/06/08 11:43:04;;;;;;;4.88;2.40;;;22.30;99.90;;;;;;5024104;28;20456;-77
2023/06/08 11:45:30;;;;;;;5.78;2.50;;;22.30;73.80;;;;;;4997380;28;20125;-76
2023/06/08 11:47:57;;;;;;;5.70;2.00;;;22.30;92.10;;;;;;5012435;28;20441;-76
2023/06/08 11:50:23;;;;;;;3.80;1.95;;;22.20;99.90;;;;;;4992659;28;20042;-76
2023/06/08 11:52:49;;;;;;;5.10;2.00;;;22.20;41.20;;;;;;4991373;28;20074;-76
2023/06/08 11:55:22;;;;;;;5.75;2.15;;;22.00;91.00;;;;;;5010739;28;20434;-76
2023/06/08 11:57:56;;;;;;;6.00;2.50;;;22.00;99.90;;;;;;4994200;28;20128;-75
2023/06/08 12:00:27;;;;;;;7.68;2.75;;;22.00;99.90;;;;;;4977762;28;20049;-75
2023/06/08 12:02:55;;;;;;;5.18;2.20;;;21.80;85.20;;;;;;4994807;28;20770;-76
2023/06/08 12:05:26;;;;;;;4.97;2.30;;;21.60;99.90;;;;;;4993656;28;20070;-75
2023/06/08 12:07:52;;;;;;;5.25;2.40;;;21.60;99.90;;;;;;5007807;28;20046;-76
2023/06/08 12:10:18;;;;;;;4.28;1.80;;;21.60;99.90;;;;;;4988963;28;20494;-76
2023/06/08 12:12:44;;;;;;;5.90;2.25;;;21.70;99.90;;;;;;4986525;28;20045;-76
2023/06/08 12:15:15;;;;;;;5.57;2.08;;;22.00;99.90;;;;;;4989073;28;20041;-75
2023/06/08 12:17:42;;;;;;;4.95;2.20;;;22.30;99.90;;;;;;5009383;28;20042;-76
2023/06/08 12:20:08;;;;;;;4.53;2.03;;;22.30;99.90;;;;;;4993266;28;20062;-76
2023/06/08 12:22:34;;;;;;;5.07;2.60;;;22.30;99.90;;;;;;4990193;28;20049;-76
2023/06/08 12:25:00;;;;;;;9.27;3.47;;;22.10;91.20;;;;;;4990073;28;20140;-76
2023/06/08 12:27:29;;;;;;;5.22;2.13;;;22.20;99.90;;;;;;4977893;28;20137;-76
2023/06/08 12:29:56;;;;;;;8.18;2.45;;;22.10;99.90;;;;;;4987626;28;20054;-76
2023/06/08 12:32:23;;;;;;;3.75;2.35;;;21.90;90.90;;;;;;4974064;28;20409;-76
2023/06/08 12:34:49;;;;;;;5.95;2.40;;;21.80;99.90;;;;;;4979316;28;20054;-76
2023/06/08 12:37:14;;;;;;;3.55;1.73;;;21.90;99.90;;;;;;4991772;28;20041;-76
2023/06/08 12:39:40;;;;;;;6.53;2.13;;;22.20;99.90;;;;;;4981516;28;20046;-76
2023/06/08 12:42:06;;;;;;;3.78;1.85;;;22.50;61.00;;;;;;4960822;28;20483;-76
2023/06/08 12:44:32;;;;;;;7.18;2.17;;;22.70;38.10;;;;;;4975122;28;20042;-76
2023/06/08 12:46:59;;;;;;;6.38;2.33;;;22.70;24.80;;;;;;4973486;28;20042;-76
2023/06/08 12:49:25;;;;;;;6.78;2.15;;;22.40;37.80;;;;;;4973309;28;20061;-76
2023/06/08 12:51:51;;;;;;;4.93;1.80;;;22.50;54.60;;;;;;4992796;28;20045;-76
2023/06/08 12:54:17;;;;;;;6.40;2.50;;;22.60;67.10;;;;;;4976285;28;20491;-76
2023/06/08 12:56:42;;;;;;;6.47;2.22;;;22.70;11.60;;;;;;4968495;28;20149;-77
2023/06/08 12:59:08;;;;;;;5.05;2.17;;;22.50;33.70;;;;;;4981332;28;20122;-77
2023/06/08 13:01:34;;;;;;;6.15;1.75;;;22.30;50.80;;;;;;4981543;28;20077;-78
2023/06/08 13:04:00;;;;;;;5.85;2.35;;;22.60;93.30;;;;;;4992043;28;20085;-77
2023/06/08 13:06:26;;;;;;;3.53;1.77;;;22.60;57.30;;;;;;4978503;28;20046;-77